Flight Track Log - Related Links

Times and Time Zones

All times are in EST time to prevent confusion due to time zone crossing. See the ASQ3811 flight status page for this flight to view local times or setup timezone preferences in your user account.

Time Position Orientation Groundspeed Altitude Reporting Facility
EST Latitude Longitude Course Direction KTS MPH feet Rate Location/Type
Thu 06:27:49 PM 29.9769 -95.3031 34° Northeast 165 190 600  Level Houston Center
Thu 06:29:08 PM 30.0328 -95.2592 34° Northeast 231 266 2,800 1,898 Climbing Houston Center
Thu 06:29:27 PM 30.0642 -95.2467 19° North 266 306 3,700 1,161 Climbing Houston Center
Thu 06:30:10 PM 30.1039 -95.2228 27° Northeast 271 312 4,000 787 Climbing Houston Center
Thu 06:30:28 PM 30.1361 -95.2064 24° Northeast 283 326 4,500 1,935 Climbing Houston Center
Thu 06:31:12 PM 30.1783 -95.1919 16° North 282 325 6,000 2,636 Climbing Houston Center
Thu 06:32:15 PM 30.2686 -95.1664 14° North 279 321 9,200 2,256 Climbing Houston Center
Thu 06:33:17 PM 30.3458 -95.1436 14° North 285 328 10,700 1,210 Climbing Houston Center
Thu 06:34:19 PM 30.4339 -95.1183 14° North 326 375 11,700 968 Climbing Houston Center
Thu 06:35:21 PM 30.5300 -95.0906 14° North 352 405 12,700 1,065 Climbing Houston Center
Thu 06:36:23 PM 30.6261 -95.0519 19° North 366 421 13,900 1,355 Climbing Houston Center
Thu 06:37:25 PM 30.7350 -94.9775 30° Northeast 377 434 15,500 1,500 Climbing Houston Center
Thu 06:38:27 PM 30.8169 -94.9008 39° Northeast 378 435 17,000 1,452 Climbing Houston Center
Thu 06:39:29 PM 30.8997 -94.8272 37° Northeast 377 434 18,500 1,548 Climbing Houston Center
Thu 06:40:31 PM 30.9800 -94.7547 38° Northeast 370 426 20,200 1,344 Climbing Houston Center
Thu 06:41:34 PM 31.0611 -94.6808 38° Northeast 373 429 21,300 1,152 Climbing Houston Center
Thu 06:42:36 PM 31.1631 -94.5883 38° Northeast 393 452 22,600 1,113 Climbing Houston Center
Thu 06:43:38 PM 31.2503 -94.5094 38° Northeast 403 464 23,600 1,016 Climbing Houston Center
Thu 06:44:40 PM 31.3397 -94.4278 38° Northeast 410 472 24,700 1,016 Climbing Houston Center
Thu 06:45:42 PM 31.4297 -94.3456 38° Northeast 411 473 25,700 1,113 Climbing Houston Center
Thu 06:46:44 PM 31.5383 -94.2461 38° Northeast 413 475 27,000 1,113 Climbing Houston Center
Thu 06:47:46 PM 31.6275 -94.1639 38° Northeast 408 470 28,000 1,016 Climbing Houston Center
Thu 06:48:48 PM 31.7169 -94.0811 38° Northeast 409 471 29,100 1,065 Climbing Houston Center
Thu 06:49:50 PM 31.8092 -93.9964 38° Northeast 405 466 30,200 991 Climbing Houston Center
Thu 06:50:43 PM 31.8814 -93.9317 37° Northeast 403 464 31,000 1,043 Climbing Fort Worth Center
Thu 06:51:45 PM 31.9825 -93.8369 38° Northeast 402 463 32,200 1,113 Climbing Fort Worth Center
Thu 06:52:47 PM 32.0717 -93.7544 38° Northeast 405 466 33,300 1,065 Climbing Fort Worth Center
Thu 06:53:49 PM 32.1650 -93.6678 38° Northeast 406 467 34,400 823 Climbing Fort Worth Center
Thu 06:54:51 PM 32.2425 -93.5944 39° Northeast 403 464 35,000 290 Climbing Fort Worth Center
Thu 06:55:53 PM 32.3344 -93.5092 38° Northeast 418 481 35,000  Level Fort Worth Center
Thu 06:56:55 PM 32.4486 -93.4006 39° Northeast 439 505 35,000  Level Fort Worth Center
Thu 06:57:57 PM 32.5450 -93.3103 38° Northeast 442 509 35,000  Level Fort Worth Center
Thu 06:58:59 PM 32.6425 -93.2172 39° Northeast 449 517 35,000  Level Fort Worth Center
Thu 07:00:02 PM 32.7394 -93.1250 39° Northeast 449 517 35,000  Level Fort Worth Center
Thu 07:01:04 PM 32.8364 -93.0328 39° Northeast 450 518 35,000  Level Fort Worth Center
Thu 07:02:06 PM 32.9528 -92.9211 39° Northeast 450 518 35,000  Level Fort Worth Center
Thu 07:03:08 PM 33.0519 -92.8267 39° Northeast 456 525 35,000  Level Fort Worth Center
Thu 07:04:10 PM 33.1492 -92.7325 39° Northeast 453 521 35,000  Level Fort Worth Center
Thu 07:05:12 PM 33.2453 -92.6406 39° Northeast 446 513 35,000  Level Fort Worth Center
Thu 07:06:14 PM 33.3431 -92.5464 39° Northeast 448 516 35,000  Level Fort Worth Center
Thu 07:07:01 PM 33.4194 -92.4725 39° Northeast 445 512 35,000  Level Memphis Center
Thu 07:08:03 PM 33.5167 -92.3789 39° Northeast 447 514 35,000  Level Memphis Center
Thu 07:09:05 PM 33.6317 -92.2661 39° Northeast 447 514 35,000  Level Memphis Center
Thu 07:10:07 PM 33.7278 -92.1731 39° Northeast 445 512 35,000  Level Memphis Center
Thu 07:11:09 PM 33.8247 -92.0778 39° Northeast 447 514 35,000  Level Memphis Center
Thu 07:12:11 PM 33.9211 -91.9828 39° Northeast 449 517 35,000  Level Memphis Center
Thu 07:13:13 PM 34.0175 -91.8878 39° Northeast 449 517 35,000  Level Memphis Center
Thu 07:14:15 PM 34.1175 -91.7897 39° Northeast 449 517 35,000  Level Memphis Center
Thu 07:15:17 PM 34.2269 -91.6806 40° Northeast 449 517 35,000  Level Memphis Center
Thu 07:16:19 PM 34.3253 -91.5831 39° Northeast 451 519 35,000  Level Memphis Center
Thu 07:17:21 PM 34.4228 -91.4850 40° Northeast 451 519 35,000  Level Memphis Center
Thu 07:18:23 PM 34.5197 -91.3872 40° Northeast 449 517 35,000  Level Memphis Center
Thu 07:19:25 PM 34.6183 -91.2892 39° Northeast 451 519 35,000  Level Memphis Center
Thu 07:20:27 PM 34.7156 -91.1903 40° Northeast 451 519 35,000  Level Memphis Center
Thu 07:21:29 PM 34.8303 -91.0753 39° Northeast 453 521 35,000  Level Memphis Center
Thu 07:22:31 PM 34.9292 -90.9767 39° Northeast 453 521 35,000  Level Memphis Center
Thu 07:23:33 PM 35.0269 -90.8753 40° Northeast 454 522 35,000  Level Memphis Center
Thu 07:24:35 PM 35.1256 -90.7756 40° Northeast 454 522 35,000  Level Memphis Center
Thu 07:25:37 PM 35.2231 -90.6747 40° Northeast 453 521 35,000  Level Memphis Center
Thu 07:26:39 PM 35.3219 -90.5736 40° Northeast 456 525 35,000  Level Memphis Center
Thu 07:27:41 PM 35.4203 -90.4717 40° Northeast 456 525 35,000  Level Memphis Center
Thu 07:28:43 PM 35.5192 -90.3700 40° Northeast 457 526 35,000  Level Memphis Center
Thu 07:29:45 PM 35.6175 -90.2667 40° Northeast 456 525 35,000  Level Memphis Center
Thu 07:30:47 PM 35.7169 -90.1633 40° Northeast 458 527 35,000  Level Memphis Center
Thu 07:31:49 PM 35.8342 -90.0400 40° Northeast 461 531 35,000  Level Memphis Center
Thu 07:32:51 PM 35.9333 -89.9375 40° Northeast 463 533 35,000  Level Memphis Center
Thu 07:33:53 PM 36.0308 -89.8336 41° Northeast 463 533 35,000  Level Memphis Center
Thu 07:34:54 PM 36.1289 -89.7319 40° Northeast 461 531 35,000  Level Memphis Center
Thu 07:35:56 PM 36.2322 -89.6431 35° Northeast 452 520 35,000  Level Memphis Center
Thu 07:36:58 PM 36.3289 -89.5414 40° Northeast 452 520 35,000  Level Memphis Center
Thu 07:38:00 PM 36.4275 -89.4353 41° Northeast 457 526 35,000 -48 Level Memphis Center
Thu 07:39:02 PM 36.5286 -89.3242 41° Northeast 463 533 34,900 -532 Descending Memphis Center
Thu 07:40:04 PM 36.6272 -89.2161 41° Northeast 465 535 33,900 -919 Descending Memphis Center
Thu 07:41:06 PM 36.7256 -89.1094 41° Northeast 466 536 33,000 -435 Descending Memphis Center
Thu 07:42:08 PM 36.8436 -88.9792 41° Northeast 469 540 33,000  Level Memphis Center
Thu 07:43:10 PM 36.9436 -88.8692 41° Northeast 475 547 33,000  Level Memphis Center
Thu 07:44:12 PM 37.0428 -88.7592 42° Northeast 476 548 33,000  Level Memphis Center
Thu 07:45:14 PM 37.1422 -88.6494 41° Northeast 476 548 33,000  Level Memphis Center
Thu 07:46:16 PM 37.2411 -88.5392 42° Northeast 476 548 33,000  Level Memphis Center
Thu 07:47:18 PM 37.3383 -88.4297 42° Northeast 472 543 33,000  Level Memphis Center
Thu 07:47:52 PM 37.4086 -88.3514 42° Northeast 472 543 33,000  Level Indianapolis Center
Thu 07:48:54 PM 37.5042 -88.2442 42° Northeast 471 542 33,000  Level Indianapolis Center
Thu 07:49:56 PM 37.6061 -88.1283 42° Northeast 473 544 33,000 -49 Level Indianapolis Center
Thu 07:50:57 PM 37.6925 -87.9972 50° Northeast 485 558 32,900 -537 Descending Indianapolis Center
Thu 07:51:59 PM 37.7567 -87.8344 63° Northeast 508 585 31,900 -968 Descending Indianapolis Center
Thu 07:53:01 PM 37.8189 -87.6753 64° Northeast 516 594 30,900 -927 Descending Indianapolis Center
Thu 07:54:02 PM 37.8803 -87.5164 64° Northeast 517 595 30,000 -927 Descending Indianapolis Center
Thu 07:55:04 PM 37.9442 -87.3525 64° Northeast 517 595 29,000 -1,065 Descending Indianapolis Center
Thu 07:56:06 PM 38.0206 -87.1533 64° Northeast 525 604 27,800 -1,073 Descending Indianapolis Center
Thu 07:57:07 PM 38.0831 -86.9889 64° Northeast 525 604 26,800 -976 Descending Indianapolis Center
Thu 07:58:09 PM 38.1461 -86.8250 64° Northeast 525 604 25,800 -976 Descending Indianapolis Center
Thu 07:59:10 PM 38.2081 -86.6603 64° Northeast 522 601 24,800 -976 Descending Indianapolis Center
Thu 08:00:12 PM 38.2708 -86.4944 64° Northeast 522 601 23,800 -1,395 Descending Indianapolis Center
Thu 08:02:15 PM 38.4053 -86.1336 64° Northeast 509 586 20,500 -1,719 Descending Indianapolis Center
Thu 08:03:17 PM 38.4631 -85.9781 65° Northeast 489 563 18,500 -1,902 Descending Indianapolis Center
Thu 08:04:18 PM 38.5181 -85.8258 65° Northeast 475 547 16,600 -1,951 Descending Indianapolis Center
Thu 08:05:20 PM 38.5731 -85.6781 65° Northeast 462 532 14,500 -2,274 Descending Indianapolis Center
Thu 08:06:22 PM 38.6311 -85.5442 61° Northeast 446 513 11,900 -1,707 Descending Indianapolis Center
Thu 08:07:23 PM 38.6894 -85.4164 60° Northeast 423 487 11,000 -439 Descending Indianapolis Center
Thu 08:08:25 PM 38.7458 -85.2844 61° Northeast 424 488 11,000  Level Indianapolis Center
Thu 08:09:26 PM 38.8139 -85.1261 61° Northeast 427 491 11,000 -49 Level Indianapolis Center
Thu 08:10:28 PM 38.8728 -84.9928 60° Northeast 430 495 10,900 -532 Descending Indianapolis Center
Thu 08:11:30 PM 38.9219 -84.8761 62° Northeast 371 427 9,900 -1,062 Descending Indianapolis Center
Thu 08:12:21 PM 38.9833 -84.8000 44° Northeast 306 352 8,900 -1,459 Descending Cincinnati TRACON
Thu 08:13:21 PM 39.0500 -84.7833 11° North 263 303 7,200 -1,714 Descending Cincinnati TRACON
Thu 08:14:27 PM 39.1333 -84.7833 360° North 261 300 5,300 -1,714 Descending Cincinnati TRACON
Thu 08:15:27 PM 39.1833 -84.7167 46° Northeast 280 322 3,600 -1,316 Descending Cincinnati TRACON
Thu 08:16:21 PM 39.1500 -84.6833 142° Southeast 134 154 2,800 -737 Descending Cincinnati TRACON
Thu 08:17:21 PM 39.1167 -84.6667 159° South 106 122 2,200 -700 Descending Cincinnati TRACON
Thu 08:18:21 PM 39.0833 -84.6667 180° South 100 115 1,400 -800 Descending Cincinnati TRACON

Login

Don't have an account? Register now (free) for customized features, flight alerts, and more!